Time;durP1;ratioP1;P1;durP2;ratioP2;P2;SDS_P1;SDS_P2;PMS_P1;PMS_P2;Temp;Humidity;BMP_temperature;BMP_pressure;BME280_temperature;BME280_humidity;BME280_pressure;Samples;Min_cycle;Max_cycle;Signal;HPM_P1;HPM_P2
2023/03/12 00:02:07;;;;;;;0.80;0.80;;;;;;;;;;4980579;28;20218;-82
2023/03/12 00:04:34;;;;;;;0.90;0.90;;;;;;;;;;4980089;28;20185;-84
2023/03/12 00:07:01;;;;;;;0.90;0.90;;;;;;;;;;5032219;23;20625;-83
2023/03/12 00:09:27;;;;;;;0.93;0.93;;;;;;;;;;5021867;28;20188;-83
2023/03/12 00:11:53;;;;;;;0.90;0.90;;;;;;;;;;5022467;28;20271;-83
2023/03/12 00:14:19;;;;;;;0.90;0.90;;;;;;;;;;5023797;28;20208;-83
2023/03/12 00:16:45;;;;;;;1.00;1.00;;;;;;;;;;5034056;28;20275;-80
2023/03/12 00:19:12;;;;;;;0.90;0.90;;;;;;;;;;5039046;28;20175;-80
2023/03/12 00:21:38;;;;;;;1.00;1.00;;;;;;;;;;5034549;28;20217;-79
2023/03/12 00:24:04;;;;;;;0.90;0.90;;;;;;;;;;5030013;28;20208;-80
2023/03/12 00:26:30;;;;;;;1.00;1.00;;;;;;;;;;5022135;28;20183;-81
2023/03/12 00:28:56;;;;;;;0.90;0.90;;;;;;;;;;5021197;28;20251;-80
2023/03/12 00:31:27;;;;;;;1.00;1.00;;;;;;;;;;5021299;28;20180;-81
2023/03/12 00:33:54;;;;;;;0.80;0.80;;;;;;;;;;5020615;28;20215;-82
2023/03/12 00:36:23;;;;;;;0.90;0.90;;;;;;;;;;5020491;28;20176;-83
2023/03/12 00:38:49;;;;;;;0.80;0.80;;;;;;;;;;5021450;28;20273;-81
2023/03/12 00:41:14;;;;;;;0.90;0.90;;;;;;;;;;5020451;28;20800;-81
2023/03/12 00:43:40;;;;;;;0.90;0.90;;;;;;;;;;5018450;28;20248;-82
2023/03/12 00:46:06;;;;;;;0.97;0.97;;;;;;;;;;5022029;28;20181;-82
2023/03/12 00:48:32;;;;;;;1.00;1.00;;;;;;;;;;5021905;28;20267;-83
2023/03/12 00:50:58;;;;;;;1.00;1.00;;;;;;;;;;5022306;28;20196;-82
2023/03/12 00:53:24;;;;;;;1.10;1.10;;;;;;;;;;5020894;28;20196;-82
2023/03/12 00:55:50;;;;;;;0.90;0.90;;;;;;;;;;5021696;28;20216;-82
2023/03/12 00:58:16;;;;;;;0.90;0.90;;;;;;;;;;5021688;28;20581;-82
2023/03/12 01:00:42;;;;;;;0.90;0.90;;;;;;;;;;5021480;28;20295;-82
2023/03/12 01:03:08;;;;;;;1.00;1.00;;;;;;;;;;5019299;28;20200;-82
2023/03/12 01:05:36;;;;;;;1.00;1.00;;;;;;;;;;5021577;28;20628;-81
2023/03/12 01:08:03;;;;;;;0.90;0.90;;;;;;;;;;5022084;28;20185;-82
2023/03/12 01:10:29;;;;;;;1.00;1.00;;;;;;;;;;5021610;28;20180;-82
2023/03/12 01:12:55;;;;;;;0.90;0.90;;;;;;;;;;5021062;28;20196;-82
2023/03/12 01:15:21;;;;;;;0.80;0.80;;;;;;;;;;5021928;28;20176;-82
2023/03/12 01:17:47;;;;;;;1.00;1.00;;;;;;;;;;5022799;28;20346;-82
2023/03/12 01:20:13;;;;;;;1.00;1.00;;;;;;;;;;5029586;28;20212;-82
2023/03/12 01:22:39;;;;;;;0.90;0.90;;;;;;;;;;5029592;28;20185;-82
2023/03/12 01:25:05;;;;;;;0.80;0.80;;;;;;;;;;5030067;28;20235;-82
2023/03/12 01:27:31;;;;;;;0.90;0.90;;;;;;;;;;5036566;28;20175;-80
2023/03/12 01:29:57;;;;;;;0.83;0.83;;;;;;;;;;5038699;28;20168;-80
2023/03/12 01:32:24;;;;;;;0.90;0.90;;;;;;;;;;5038278;28;20204;-81
2023/03/12 01:34:50;;;;;;;0.90;0.90;;;;;;;;;;5023267;28;20188;-81
2023/03/12 01:37:16;;;;;;;0.90;0.90;;;;;;;;;;5019767;28;20276;-81
2023/03/12 01:39:41;;;;;;;1.00;1.00;;;;;;;;;;5019230;28;20192;-81
2023/03/12 01:42:08;;;;;;;0.90;0.90;;;;;;;;;;5019378;28;20220;-81
2023/03/12 01:44:52;;;;;;;0.90;0.90;;;;;;;;;;5018419;28;20185;-82
2023/03/12 01:47:18;;;;;;;0.90;0.90;;;;;;;;;;5019665;28;20195;-81
2023/03/12 01:49:44;;;;;;;0.97;0.97;;;;;;;;;;5018578;28;20172;-81
2023/03/12 01:52:13;;;;;;;1.00;1.00;;;;;;;;;;5019203;28;20180;-81
2023/03/12 01:54:50;;;;;;;0.90;0.90;;;;;;;;;;5018738;28;20192;-81
2023/03/12 01:57:18;;;;;;;0.83;0.83;;;;;;;;;;5018968;28;20183;-81
2023/03/12 01:59:46;;;;;;;0.90;0.90;;;;;;;;;;5018553;28;20176;-81
2023/03/12 02:02:13;;;;;;;0.90;0.90;;;;;;;;;;5018586;28;20216;-81
2023/03/12 02:04:41;;;;;;;0.90;0.90;;;;;;;;;;5019509;28;20192;-81
2023/03/12 02:07:09;;;;;;;0.90;0.90;;;;;;;;;;5019271;28;20198;-81
2023/03/12 02:09:38;;;;;;;1.00;1.00;;;;;;;;;;5019307;28;20173;-82
2023/03/12 02:12:04;;;;;;;0.90;0.90;;;;;;;;;;5019484;28;20632;-83
2023/03/12 02:14:30;;;;;;;0.90;0.90;;;;;;;;;;5018862;28;20204;-81
2023/03/12 02:16:56;;;;;;;0.90;0.90;;;;;;;;;;5020357;28;20280;-82
2023/03/12 02:19:28;;;;;;;0.90;0.90;;;;;;;;;;5021378;28;20181;-82
2023/03/12 02:21:54;;;;;;;1.00;1.00;;;;;;;;;;5022259;28;20212;-80
2023/03/12 02:24:29;;;;;;;0.90;0.90;;;;;;;;;;5029696;28;20224;-80
2023/03/12 02:26:55;;;;;;;0.90;0.90;;;;;;;;;;5032474;28;20180;-80
2023/03/12 02:29:24;;;;;;;0.90;0.90;;;;;;;;;;5021610;28;20710;-81
2023/03/12 02:31:52;;;;;;;0.90;0.90;;;;;;;;;;5018546;28;20180;-80
2023/03/12 02:34:18;;;;;;;1.00;1.00;;;;;;;;;;5016910;28;20203;-80
2023/03/12 02:36:43;;;;;;;0.90;0.90;;;;;;;;;;5017605;28;20550;-80
2023/03/12 02:39:11;;;;;;;0.93;0.93;;;;;;;;;;5017608;28;20203;-80
2023/03/12 02:41:39;;;;;;;0.70;0.70;;;;;;;;;;5017694;28;20243;-80
2023/03/12 02:44:05;;;;;;;0.90;0.90;;;;;;;;;;5017093;28;20662;-80
2023/03/12 02:46:33;;;;;;;0.80;0.80;;;;;;;;;;5017864;28;20180;-82
2023/03/12 02:49:00;;;;;;;0.90;0.90;;;;;;;;;;5018439;28;20187;-82
2023/03/12 02:51:26;;;;;;;0.90;0.90;;;;;;;;;;5017763;28;20255;-80
2023/03/12 02:53:53;;;;;;;0.93;0.93;;;;;;;;;;5017512;28;20543;-79
2023/03/12 02:56:23;;;;;;;1.00;1.00;;;;;;;;;;5019300;28;20257;-82
2023/03/12 02:58:49;;;;;;;0.80;0.80;;;;;;;;;;5019996;28;20207;-79
2023/03/12 03:01:16;;;;;;;0.90;0.90;;;;;;;;;;5023269;28;20208;-78
2023/03/12 03:03:42;;;;;;;0.90;0.90;;;;;;;;;;5021505;28;20200;-79
2023/03/12 03:06:08;;;;;;;1.00;1.00;;;;;;;;;;5020955;28;20271;-79
2023/03/12 03:08:34;;;;;;;0.90;0.90;;;;;;;;;;5019811;28;20180;-80
2023/03/12 03:11:01;;;;;;;1.00;1.00;;;;;;;;;;5016486;28;20263;-79
2023/03/12 03:13:28;;;;;;;0.90;0.90;;;;;;;;;;5015517;28;20197;-79
2023/03/12 03:15:56;;;;;;;0.90;0.90;;;;;;;;;;5016171;28;20181;-79
2023/03/12 03:18:22;;;;;;;1.10;1.10;;;;;;;;;;5015777;28;20567;-81
2023/03/12 03:20:54;;;;;;;1.00;1.00;;;;;;;;;;5015911;28;20709;-80
2023/03/12 03:23:20;;;;;;;0.90;0.90;;;;;;;;;;5015355;28;20632;-80
2023/03/12 03:25:46;;;;;;;1.00;1.00;;;;;;;;;;5016121;28;20172;-78
2023/03/12 03:28:12;;;;;;;0.97;0.97;;;;;;;;;;5015926;28;20183;-79
2023/03/12 03:30:39;;;;;;;1.00;1.00;;;;;;;;;;5015894;28;20270;-79
2023/03/12 03:33:05;;;;;;;1.00;1.00;;;;;;;;;;5015325;28;20683;-82
2023/03/12 03:35:33;;;;;;;0.80;0.80;;;;;;;;;;5019603;28;20176;-79
2023/03/12 03:37:58;;;;;;;1.00;1.00;;;;;;;;;;5020369;28;20198;-80
2023/03/12 03:40:24;;;;;;;0.97;0.97;;;;;;;;;;5020044;28;20666;-81
2023/03/12 03:42:50;;;;;;;0.90;0.90;;;;;;;;;;5018989;28;20204;-81
2023/03/12 03:45:18;;;;;;;0.90;0.90;;;;;;;;;;5019518;28;20177;-81
2023/03/12 03:47:44;;;;;;;1.00;1.00;;;;;;;;;;5019698;28;20207;-81
2023/03/12 03:50:10;;;;;;;0.90;0.90;;;;;;;;;;5019863;28;20174;-79
2023/03/12 03:52:36;;;;;;;0.83;0.83;;;;;;;;;;5019552;28;20196;-80
2023/03/12 03:55:02;;;;;;;0.87;0.87;;;;;;;;;;5020211;28;20183;-80
2023/03/12 03:57:28;;;;;;;0.93;0.93;;;;;;;;;;5019798;28;20172;-80
2023/03/12 03:59:55;;;;;;;1.00;1.00;;;;;;;;;;5019783;28;20172;-80
2023/03/12 04:02:21;;;;;;;0.90;0.90;;;;;;;;;;5018555;28;20635;-80
2023/03/12 04:04:47;;;;;;;0.80;0.80;;;;;;;;;;5019712;28;20270;-80
2023/03/12 04:07:13;;;;;;;0.90;0.90;;;;;;;;;;5019542;28;20202;-79
2023/03/12 04:09:39;;;;;;;0.80;0.80;;;;;;;;;;5020076;28;20200;-79
2023/03/12 04:12:05;;;;;;;0.93;0.93;;;;;;;;;;5019376;28;20199;-80
2023/03/12 04:14:31;;;;;;;0.90;0.90;;;;;;;;;;5019731;28;20176;-80
2023/03/12 04:16:57;;;;;;;0.90;0.90;;;;;;;;;;5019329;28;20249;-80
2023/03/12 04:19:23;;;;;;;1.00;1.00;;;;;;;;;;5018692;28;20192;-80
2023/03/12 04:21:49;;;;;;;0.90;0.90;;;;;;;;;;5019002;28;20243;-80
2023/03/12 04:24:15;;;;;;;0.80;0.80;;;;;;;;;;5018517;28;20224;-80
2023/03/12 04:26:41;;;;;;;0.90;0.90;;;;;;;;;;5019122;28;20180;-80
2023/03/12 04:29:07;;;;;;;0.90;0.90;;;;;;;;;;5018405;28;20258;-80
2023/03/12 04:31:33;;;;;;;0.97;0.97;;;;;;;;;;5018888;28;20180;-81
2023/03/12 04:34:00;;;;;;;1.00;1.00;;;;;;;;;;5018529;28;20219;-81
2023/03/12 04:36:26;;;;;;;0.77;0.77;;;;;;;;;;5019036;28;20317;-79
2023/03/12 04:38:52;;;;;;;0.90;0.90;;;;;;;;;;5019145;28;20179;-80
2023/03/12 04:41:18;;;;;;;0.90;0.90;;;;;;;;;;5019269;28;20215;-80
2023/03/12 04:43:44;;;;;;;0.90;0.90;;;;;;;;;;5018756;28;20196;-80
2023/03/12 04:46:10;;;;;;;0.97;0.97;;;;;;;;;;5019350;28;20176;-80
2023/03/12 04:48:36;;;;;;;0.80;0.80;;;;;;;;;;5018623;28;20204;-79
2023/03/12 04:51:03;;;;;;;0.90;0.90;;;;;;;;;;5019250;28;20177;-81
2023/03/12 04:53:29;;;;;;;0.90;0.90;;;;;;;;;;5018037;28;20192;-80
2023/03/12 04:55:55;;;;;;;0.90;0.90;;;;;;;;;;5018525;28;20203;-81
2023/03/12 04:58:21;;;;;;;1.00;1.00;;;;;;;;;;5018240;28;20640;-81
2023/03/12 05:00:47;;;;;;;0.90;0.90;;;;;;;;;;5018895;28;20355;-79
2023/03/12 05:03:13;;;;;;;0.80;0.80;;;;;;;;;;5018724;28;20652;-80
2023/03/12 05:05:39;;;;;;;1.00;1.00;;;;;;;;;;5018435;28;20184;-80
2023/03/12 05:08:05;;;;;;;0.90;0.90;;;;;;;;;;5019099;28;20180;-79
2023/03/12 05:10:32;;;;;;;0.80;0.80;;;;;;;;;;5017643;28;20636;-81
2023/03/12 05:12:58;;;;;;;0.80;0.80;;;;;;;;;;5018042;28;20196;-81
2023/03/12 05:15:24;;;;;;;0.90;0.90;;;;;;;;;;5024331;28;20177;-80
2023/03/12 05:17:50;;;;;;;0.90;0.90;;;;;;;;;;5024916;28;20189;-79
2023/03/12 05:20:16;;;;;;;0.80;0.80;;;;;;;;;;5025065;28;20308;-80
2023/03/12 05:22:42;;;;;;;0.80;0.80;;;;;;;;;;5024166;28;20200;-79
2023/03/12 05:25:09;;;;;;;0.90;0.90;;;;;;;;;;5023683;28;20211;-80
2023/03/12 05:27:35;;;;;;;0.80;0.80;;;;;;;;;;5018625;28;20264;-80
2023/03/12 05:30:01;;;;;;;1.00;1.00;;;;;;;;;;5018048;28;20248;-80
2023/03/12 05:32:27;;;;;;;0.90;0.90;;;;;;;;;;5018529;28;20215;-78
2023/03/12 05:34:53;;;;;;;0.90;0.90;;;;;;;;;;5019275;28;20181;-83
2023/03/12 05:37:19;;;;;;;0.97;0.97;;;;;;;;;;5019022;28;20184;-83
2023/03/12 05:39:48;;;;;;;0.90;0.90;;;;;;;;;;5019392;28;20180;-80
2023/03/12 05:42:14;;;;;;;0.90;0.90;;;;;;;;;;5018704;28;20294;-82
2023/03/12 05:44:40;;;;;;;0.90;0.90;;;;;;;;;;5019232;28;20227;-79
2023/03/12 05:47:07;;;;;;;0.90;0.90;;;;;;;;;;5019593;28;20184;-82
2023/03/12 05:49:33;;;;;;;1.00;1.00;;;;;;;;;;5020417;28;20169;-80
2023/03/12 05:51:59;;;;;;;0.90;0.90;;;;;;;;;;5022594;28;20258;-81
2023/03/12 05:54:25;;;;;;;0.80;0.80;;;;;;;;;;5023331;28;20200;-80
2023/03/12 05:56:51;;;;;;;0.90;0.90;;;;;;;;;;5022957;28;20223;-78
2023/03/12 05:59:17;;;;;;;1.00;1.00;;;;;;;;;;5021445;28;20180;-80
2023/03/12 06:01:43;;;;;;;0.80;0.80;;;;;;;;;;5019538;28;20216;-82
2023/03/12 06:04:09;;;;;;;0.90;0.90;;;;;;;;;;5017918;28;20683;-80
2023/03/12 06:06:36;;;;;;;0.90;0.90;;;;;;;;;;5018151;28;20203;-80
2023/03/12 06:09:03;;;;;;;0.80;0.80;;;;;;;;;;5055458;22;20243;-85
2023/03/12 06:11:29;;;;;;;0.80;0.80;;;;;;;;;;5038219;28;20192;-85
2023/03/12 06:13:56;;;;;;;0.83;0.83;;;;;;;;;;5016841;28;20205;-83
2023/03/12 06:16:23;;;;;;;0.90;0.90;;;;;;;;;;4998657;28;20181;-84
2023/03/12 06:18:52;;;;;;;0.90;0.90;;;;;;;;;;4997897;28;20186;-84
2023/03/12 06:21:20;;;;;;;0.90;0.90;;;;;;;;;;4997404;28;20239;-83
2023/03/12 06:23:47;;;;;;;0.90;0.90;;;;;;;;;;4996797;28;20513;-81
2023/03/12 06:26:14;;;;;;;0.90;0.90;;;;;;;;;;4997093;28;20263;-83
2023/03/12 06:28:40;;;;;;;0.90;0.90;;;;;;;;;;4997696;28;20204;-82
2023/03/12 06:31:06;;;;;;;0.90;0.90;;;;;;;;;;4997554;28;20177;-83
2023/03/12 06:33:32;;;;;;;0.90;0.90;;;;;;;;;;4997333;28;20668;-83
2023/03/12 06:35:59;;;;;;;0.90;0.90;;;;;;;;;;4997854;28;20177;-83
2023/03/12 06:38:25;;;;;;;0.97;0.97;;;;;;;;;;4997605;28;20637;-82
2023/03/12 06:40:58;;;;;;;0.97;0.97;;;;;;;;;;4997819;28;20205;-84
2023/03/12 06:43:24;;;;;;;0.90;0.90;;;;;;;;;;4997055;28;20381;-83
2023/03/12 06:45:50;;;;;;;0.90;0.90;;;;;;;;;;4997717;28;20181;-82
2023/03/12 06:48:17;;;;;;;0.87;0.87;;;;;;;;;;4997680;28;20254;-83
2023/03/12 06:50:42;;;;;;;0.93;0.93;;;;;;;;;;4999088;28;20177;-82
2023/03/12 06:53:08;;;;;;;1.00;1.00;;;;;;;;;;4998136;28;20557;-82
2023/03/12 06:55:34;;;;;;;0.90;0.90;;;;;;;;;;4999387;28;20177;-82
2023/03/12 06:58:02;;;;;;;0.90;0.90;;;;;;;;;;4997739;28;20278;-80
2023/03/12 07:00:29;;;;;;;0.90;0.90;;;;;;;;;;4994898;28;20577;-86
2023/03/12 07:02:55;;;;;;;0.80;0.80;;;;;;;;;;4996029;28;20213;-82
2023/03/12 07:05:21;;;;;;;1.00;1.00;;;;;;;;;;4996084;28;20197;-83
2023/03/12 07:07:47;;;;;;;0.90;0.90;;;;;;;;;;4995340;28;20566;-81
2023/03/12 07:10:13;;;;;;;0.90;0.90;;;;;;;;;;4994955;28;20263;-83
2023/03/12 07:12:39;;;;;;;0.90;0.90;;;;;;;;;;4995186;28;20205;-82
2023/03/12 07:15:05;;;;;;;0.87;0.87;;;;;;;;;;4995897;28;20257;-82
2023/03/12 07:17:31;;;;;;;0.90;0.90;;;;;;;;;;4995651;28;20177;-87
2023/03/12 07:19:57;;;;;;;1.00;1.00;;;;;;;;;;4995438;28;20189;-83
2023/03/12 07:22:23;;;;;;;0.83;0.83;;;;;;;;;;4995653;28;20228;-82
2023/03/12 07:24:50;;;;;;;0.93;0.93;;;;;;;;;;4995588;28;20174;-81
2023/03/12 07:27:16;;;;;;;1.00;1.00;;;;;;;;;;4995800;28;20181;-83
2023/03/12 07:29:42;;;;;;;0.90;0.90;;;;;;;;;;4995522;28;20235;-83
2023/03/12 07:32:08;;;;;;;0.90;0.90;;;;;;;;;;4997933;28;20181;-82
2023/03/12 07:34:34;;;;;;;0.80;0.80;;;;;;;;;;4998341;28;20169;-82
2023/03/12 07:36:59;;;;;;;0.90;0.90;;;;;;;;;;5000232;28;20181;-80
2023/03/12 07:39:25;;;;;;;0.80;0.80;;;;;;;;;;4998413;28;20515;-80
2023/03/12 07:41:51;;;;;;;0.90;0.90;;;;;;;;;;4996716;28;20276;-85
2023/03/12 07:44:17;;;;;;;0.90;0.90;;;;;;;;;;4995325;28;20193;-87
2023/03/12 07:46:43;;;;;;;0.93;0.93;;;;;;;;;;4997088;28;20263;-82
2023/03/12 07:49:09;;;;;;;0.87;0.87;;;;;;;;;;4996649;28;20187;-85
2023/03/12 07:51:35;;;;;;;0.90;0.90;;;;;;;;;;4996465;28;20189;-82
2023/03/12 07:54:01;;;;;;;0.80;0.80;;;;;;;;;;4996116;28;20243;-84
2023/03/12 07:56:28;;;;;;;0.90;0.90;;;;;;;;;;4996142;28;20249;-82
2023/03/12 07:58:54;;;;;;;0.90;0.90;;;;;;;;;;4998509;28;20625;-82
2023/03/12 08:01:20;;;;;;;0.90;0.90;;;;;;;;;;4998024;28;20213;-81
2023/03/12 08:03:46;;;;;;;0.90;0.90;;;;;;;;;;4996117;28;20603;-84
2023/03/12 08:06:12;;;;;;;0.90;0.90;;;;;;;;;;4998148;28;20173;-82
2023/03/12 08:08:40;;;;;;;0.90;0.90;;;;;;;;;;4997409;28;20190;-83
2023/03/12 08:11:06;;;;;;;0.80;0.80;;;;;;;;;;4999954;28;20181;-82
2023/03/12 08:13:33;;;;;;;0.90;0.90;;;;;;;;;;4999238;28;20293;-83
2023/03/12 08:15:59;;;;;;;1.00;1.00;;;;;;;;;;4995645;28;20173;-79
2023/03/12 08:18:25;;;;;;;0.90;0.90;;;;;;;;;;4997119;28;20174;-81
2023/03/12 08:20:51;;;;;;;1.00;1.00;;;;;;;;;;5000045;28;20201;-81
2023/03/12 08:23:18;;;;;;;0.80;0.80;;;;;;;;;;4999740;28;20682;-81
2023/03/12 08:25:46;;;;;;;0.83;0.83;;;;;;;;;;5000545;28;20176;-80
2023/03/12 08:28:12;;;;;;;0.80;0.80;;;;;;;;;;5001807;28;20177;-79
2023/03/12 08:30:37;;;;;;;0.83;0.83;;;;;;;;;;4999271;28;20536;-80
2023/03/12 08:33:04;;;;;;;0.80;0.80;;;;;;;;;;4999396;28;20197;-80
2023/03/12 08:35:30;;;;;;;0.90;0.90;;;;;;;;;;4999740;28;20193;-80
2023/03/12 08:37:56;;;;;;;0.90;0.90;;;;;;;;;;5000063;28;20181;-81
2023/03/12 08:40:23;;;;;;;0.90;0.90;;;;;;;;;;4999909;28;20188;-82
2023/03/12 08:42:49;;;;;;;0.80;0.80;;;;;;;;;;4998951;28;20907;-81
2023/03/12 08:45:15;;;;;;;0.80;0.80;;;;;;;;;;5000887;28;20173;-82
2023/03/12 08:47:42;;;;;;;0.83;0.83;;;;;;;;;;5000760;28;20647;-80
2023/03/12 08:50:09;;;;;;;0.80;0.80;;;;;;;;;;5002411;28;20177;-82
2023/03/12 08:52:35;;;;;;;0.80;0.80;;;;;;;;;;5000374;28;20197;-83
2023/03/12 08:55:01;;;;;;;0.80;0.80;;;;;;;;;;5000729;28;20170;-83
2023/03/12 08:57:27;;;;;;;0.90;0.90;;;;;;;;;;4999795;28;20622;-82
2023/03/12 08:59:53;;;;;;;0.90;0.90;;;;;;;;;;4998883;28;20170;-83
2023/03/12 09:02:19;;;;;;;0.90;0.90;;;;;;;;;;4998033;28;20208;-82
2023/03/12 09:04:49;;;;;;;0.90;0.90;;;;;;;;;;4999209;28;20177;-81
2023/03/12 09:07:17;;;;;;;0.90;0.90;;;;;;;;;;4997986;28;20184;-81
2023/03/12 09:09:43;;;;;;;0.70;0.70;;;;;;;;;;4998316;28;20201;-84
2023/03/12 09:12:09;;;;;;;0.90;0.90;;;;;;;;;;4998573;28;20545;-84
2023/03/12 09:14:35;;;;;;;0.90;0.90;;;;;;;;;;4998942;28;20188;-82
2023/03/12 09:17:02;;;;;;;0.87;0.87;;;;;;;;;;4999588;28;20268;-82
2023/03/12 09:19:28;;;;;;;0.90;0.90;;;;;;;;;;4999368;28;20188;-83
2023/03/12 09:21:54;;;;;;;0.80;0.80;;;;;;;;;;4998988;28;20217;-81
2023/03/12 09:24:20;;;;;;;0.90;0.90;;;;;;;;;;4999528;28;20201;-84
2023/03/12 09:26:47;;;;;;;0.90;0.90;;;;;;;;;;4999199;28;20185;-82
2023/03/12 09:29:13;;;;;;;0.90;0.90;;;;;;;;;;4999695;28;20173;-84
2023/03/12 09:31:39;;;;;;;0.80;0.80;;;;;;;;;;4998628;28;20185;-82
2023/03/12 09:34:05;;;;;;;0.80;0.80;;;;;;;;;;4999240;28;20553;-82
2023/03/12 09:36:31;;;;;;;0.80;0.80;;;;;;;;;;5002647;28;20279;-82
2023/03/12 09:38:57;;;;;;;0.80;0.80;;;;;;;;;;5017783;28;20212;-84
2023/03/12 09:41:26;;;;;;;0.80;0.80;;;;;;;;;;5017801;28;20217;-81
2023/03/12 09:44:12;;;;;;;0.80;0.80;;;;;;;;;;4999833;28;20208;-82
2023/03/12 09:46:41;;;;;;;0.70;0.70;;;;;;;;;;4998645;28;20188;-80
2023/03/12 09:49:14;;;;;;;0.80;0.80;;;;;;;;;;4998898;28;20268;-82
2023/03/12 09:51:50;;;;;;;0.70;0.70;;;;;;;;;;4998200;28;20263;-82
2023/03/12 09:54:23;;;;;;;0.80;0.80;;;;;;;;;;4998243;28;20212;-83
2023/03/12 09:56:50;;;;;;;0.70;0.70;;;;;;;;;;4998440;28;20728;-82
2023/03/12 09:59:16;;;;;;;0.70;0.70;;;;;;;;;;5003924;28;20197;-82
2023/03/12 10:01:47;;;;;;;0.80;0.80;;;;;;;;;;5008086;28;20232;-82
2023/03/12 10:04:28;;;;;;;0.60;0.60;;;;;;;;;;5007151;28;20217;-83
2023/03/12 10:07:02;;;;;;;0.60;0.60;;;;;;;;;;4999305;28;20201;-83
2023/03/12 10:09:47;;;;;;;0.77;0.77;;;;;;;;;;4997323;28;20199;-83
2023/03/12 10:12:18;;;;;;;0.70;0.70;;;;;;;;;;4997323;28;20181;-82
2023/03/12 10:14:54;;;;;;;0.60;0.60;;;;;;;;;;4997623;28;20264;-83
2023/03/12 10:17:29;;;;;;;0.83;0.83;;;;;;;;;;4997948;28;20192;-82
2023/03/12 10:20:14;;;;;;;0.77;0.77;;;;;;;;;;4997849;28;20251;-82
2023/03/12 10:23:00;;;;;;;0.80;0.80;;;;;;;;;;4996564;28;20201;-83
2023/03/12 10:25:35;;;;;;;0.70;0.70;;;;;;;;;;4997385;28;20225;-81
2023/03/12 10:28:21;;;;;;;0.70;0.70;;;;;;;;;;4998190;28;20254;-85
2023/03/12 10:30:58;;;;;;;0.70;0.70;;;;;;;;;;4998340;28;20623;-84
2023/03/12 10:33:27;;;;;;;0.70;0.70;;;;;;;;;;4996275;28;20688;-83
2023/03/12 10:35:54;;;;;;;0.60;0.60;;;;;;;;;;4995782;28;20177;-85
2023/03/12 10:38:24;;;;;;;0.70;0.70;;;;;;;;;;4993512;28;20280;-84
2023/03/12 10:40:50;;;;;;;0.73;0.73;;;;;;;;;;4997125;28;20224;-83
2023/03/12 10:43:16;;;;;;;0.60;0.60;;;;;;;;;;4997035;28;20291;-84
2023/03/12 10:45:48;;;;;;;0.60;0.60;;;;;;;;;;4997063;28;20186;-83
2023/03/12 10:48:22;;;;;;;0.73;0.73;;;;;;;;;;4994555;28;20250;-85
2023/03/12 10:51:07;;;;;;;0.60;0.60;;;;;;;;;;4997240;28;20236;-84
2023/03/12 10:53:38;;;;;;;0.50;0.50;;;;;;;;;;4997133;28;20288;-87
2023/03/12 10:56:04;;;;;;;0.53;0.53;;;;;;;;;;4997107;28;20232;-84
2023/03/12 10:58:38;;;;;;;0.53;0.53;;;;;;;;;;4995881;28;20181;-83
2023/03/12 11:01:05;;;;;;;0.60;0.60;;;;;;;;;;4997118;28;20209;-84
2023/03/12 11:03:32;;;;;;;0.70;0.70;;;;;;;;;;4996577;28;20208;-84
2023/03/12 11:06:00;;;;;;;0.50;0.50;;;;;;;;;;4996136;28;20189;-82
2023/03/12 11:08:26;;;;;;;0.50;0.50;;;;;;;;;;4995601;28;20538;-84
2023/03/12 11:10:52;;;;;;;0.70;0.70;;;;;;;;;;4995202;28;20181;-82
2023/03/12 11:13:32;;;;;;;0.70;0.70;;;;;;;;;;4994580;28;20213;-81
2023/03/12 11:16:03;;;;;;;0.53;0.53;;;;;;;;;;4996568;28;20181;-83
2023/03/12 11:18:31;;;;;;;0.57;0.57;;;;;;;;;;4995245;28;20247;-82
2023/03/12 11:21:09;;;;;;;0.60;0.60;;;;;;;;;;4996672;28;20565;-82
2023/03/12 11:23:37;;;;;;;0.60;0.60;;;;;;;;;;4993630;28;20707;-80
2023/03/12 11:26:09;;;;;;;0.50;0.50;;;;;;;;;;4993605;28;20260;-82
2023/03/12 11:28:41;;;;;;;0.50;0.50;;;;;;;;;;4994656;28;20249;-81
2023/03/12 11:31:10;;;;;;;0.67;0.67;;;;;;;;;;4993161;28;20181;-83
2023/03/12 11:33:36;;;;;;;0.50;0.50;;;;;;;;;;4995171;28;20221;-83
2023/03/12 11:36:03;;;;;;;0.50;0.50;;;;;;;;;;4993994;28;20173;-83
2023/03/12 11:38:39;;;;;;;0.50;0.50;;;;;;;;;;4995745;28;20177;-85
2023/03/12 11:41:13;;;;;;;0.50;0.50;;;;;;;;;;4992052;28;20247;-84
2023/03/12 11:43:42;;;;;;;0.60;0.60;;;;;;;;;;4992373;28;20200;-84
2023/03/12 11:46:18;;;;;;;0.50;0.50;;;;;;;;;;4993433;28;20231;-90
2023/03/12 11:48:44;;;;;;;0.50;0.50;;;;;;;;;;4992342;28;20188;-87
2023/03/12 11:51:19;;;;;;;0.50;0.50;;;;;;;;;;4993444;28;20300;-88
2023/03/12 11:53:54;;;;;;;0.60;0.60;;;;;;;;;;4992603;28;20211;-85
2023/03/12 11:56:20;;;;;;;0.60;0.60;;;;;;;;;;4997148;28;20177;-85
2023/03/12 11:59:05;;;;;;;0.50;0.50;;;;;;;;;;4999877;28;20188;-82
2023/03/12 12:01:43;;;;;;;0.60;0.60;;;;;;;;;;4998203;28;20217;-86
2023/03/12 12:04:35;;;;;;;0.60;0.60;;;;;;;;;;4999213;28;20197;-84
2023/03/12 12:07:07;;;;;;;0.50;0.50;;;;;;;;;;4982711;28;20276;-85
2023/03/12 12:09:41;;;;;;;0.40;0.40;;;;;;;;;;4997752;28;20197;-84
2023/03/12 12:12:07;;;;;;;0.50;0.50;;;;;;;;;;4997911;28;20708;-86
2023/03/12 12:14:45;;;;;;;0.50;0.50;;;;;;;;;;4997369;28;20204;-85
2023/03/12 12:17:30;;;;;;;0.50;0.50;;;;;;;;;;4997233;28;20189;-85
2023/03/12 12:20:08;;;;;;;0.50;0.50;;;;;;;;;;4994742;28;20204;-83
2023/03/12 12:22:53;;;;;;;0.50;0.50;;;;;;;;;;4997258;28;20232;-84
2023/03/12 12:25:37;;;;;;;0.57;0.57;;;;;;;;;;4994459;28;20276;-85
2023/03/12 12:28:19;;;;;;;0.57;0.57;;;;;;;;;;4987344;28;20200;-87
2023/03/12 12:30:54;;;;;;;0.50;0.50;;;;;;;;;;4995119;28;20189;-84
2023/03/12 12:33:29;;;;;;;0.53;0.53;;;;;;;;;;4996729;28;20255;-87
2023/03/12 12:35:55;;;;;;;0.50;0.50;;;;;;;;;;4996575;28;20670;-86
2023/03/12 12:38:30;;;;;;;0.60;0.60;;;;;;;;;;4995880;28;20170;-85
2023/03/12 12:41:02;;;;;;;0.53;0.53;;;;;;;;;;4996453;28;20215;-86
2023/03/12 12:43:34;;;;;;;0.60;0.60;;;;;;;;;;4995850;28;20201;-88
2023/03/12 12:46:05;;;;;;;0.50;0.50;;;;;;;;;;4996840;28;20243;-90
2023/03/12 12:48:32;;;;;;;0.40;0.40;;;;;;;;;;4996693;28;20169;-92
2023/03/12 12:50:59;;;;;;;0.50;0.50;;;;;;;;;;4996400;28;20181;-88
2023/03/12 12:53:37;;;;;;;0.50;0.50;;;;;;;;;;4995092;28;20201;-86
2023/03/12 12:56:10;;;;;;;0.50;0.50;;;;;;;;;;4996147;28;20181;-86
2023/03/12 12:58:55;;;;;;;0.57;0.57;;;;;;;;;;4996339;28;20174;-85
2023/03/12 13:01:22;;;;;;;0.40;0.40;;;;;;;;;;4992957;28;20220;-87
2023/03/12 13:03:49;;;;;;;0.40;0.40;;;;;;;;;;4995829;28;20323;-87
2023/03/12 13:06:15;;;;;;;0.50;0.50;;;;;;;;;;4993524;28;20671;-89
2023/03/12 13:08:41;;;;;;;0.60;0.60;;;;;;;;;;4994627;28;20189;-89
2023/03/12 13:11:16;;;;;;;0.50;0.50;;;;;;;;;;4995259;28;20208;-84
2023/03/12 13:13:43;;;;;;;0.60;0.60;;;;;;;;;;5006544;28;20185;-86
2023/03/12 13:16:35;;;;;;;0.50;0.50;;;;;;;;;;5018758;28;20236;-82
2023/03/12 13:19:07;;;;;;;0.60;0.60;;;;;;;;;;5004761;28;20189;-83
2023/03/12 13:21:40;;;;;;;0.60;0.60;;;;;;;;;;4997575;28;20212;-83
2023/03/12 13:24:06;;;;;;;0.43;0.43;;;;;;;;;;4999051;28;20192;-83
2023/03/12 13:26:50;;;;;;;0.53;0.53;;;;;;;;;;4997964;28;20181;-83
2023/03/12 13:29:35;;;;;;;0.50;0.50;;;;;;;;;;4995555;28;20227;-83
2023/03/12 13:32:02;;;;;;;0.60;0.60;;;;;;;;;;4997470;28;20177;-83
2023/03/12 13:34:41;;;;;;;0.53;0.53;;;;;;;;;;4997834;28;20248;-85
2023/03/12 13:37:17;;;;;;;0.50;0.50;;;;;;;;;;4997587;28;20264;-83
2023/03/12 13:39:44;;;;;;;0.60;0.60;;;;;;;;;;4999955;28;20690;-88
2023/03/12 13:42:22;;;;;;;0.60;0.60;;;;;;;;;;4997790;28;20213;-84
2023/03/12 13:44:48;;;;;;;0.80;0.80;;;;;;;;;;4998040;28;20676;-83
2023/03/12 13:47:29;;;;;;;0.43;0.43;;;;;;;;;;4997917;28;20188;-88
2023/03/12 13:49:55;;;;;;;0.57;0.57;;;;;;;;;;4997726;28;20227;-83
2023/03/12 13:52:23;;;;;;;0.70;0.70;;;;;;;;;;4997530;28;20188;-88
2023/03/12 13:55:02;;;;;;;0.60;0.60;;;;;;;;;;4997469;28;20223;-84
2023/03/12 13:57:31;;;;;;;0.57;0.57;;;;;;;;;;4996657;28;20188;-90
2023/03/12 13:59:58;;;;;;;0.40;0.40;;;;;;;;;;4997085;28;20181;-85
2023/03/12 14:02:26;;;;;;;0.50;0.50;;;;;;;;;;4997389;28;20227;-83
2023/03/12 14:04:53;;;;;;;0.60;0.60;;;;;;;;;;4997855;28;20169;-82
2023/03/12 14:07:25;;;;;;;0.47;0.47;;;;;;;;;;4998194;28;20182;-82
2023/03/12 14:10:06;;;;;;;0.60;0.60;;;;;;;;;;4997454;28;20200;-81
2023/03/12 14:12:35;;;;;;;0.70;0.70;;;;;;;;;;4997343;28;20245;-82
2023/03/12 14:15:08;;;;;;;0.50;0.50;;;;;;;;;;4998012;28;20181;-84
2023/03/12 14:17:36;;;;;;;0.50;0.50;;;;;;;;;;4996875;28;20208;-83
2023/03/12 14:20:08;;;;;;;0.60;0.60;;;;;;;;;;4998016;28;20181;-84
2023/03/12 14:22:35;;;;;;;0.63;0.63;;;;;;;;;;4996329;28;20252;-83
2023/03/12 14:25:33;;;;;;;0.53;0.53;;;;;;;;;;4997837;28;20264;-82
2023/03/12 14:28:01;;;;;;;0.60;0.60;;;;;;;;;;4975906;28;20189;-82
2023/03/12 14:30:40;;;;;;;0.60;0.60;;;;;;;;;;4998900;28;20795;-83
2023/03/12 14:33:07;;;;;;;0.50;0.50;;;;;;;;;;4999286;28;20200;-82
2023/03/12 14:35:36;;;;;;;0.50;0.50;;;;;;;;;;4998201;28;20664;-84
2023/03/12 14:38:04;;;;;;;0.60;0.60;;;;;;;;;;4997707;28;20529;-83
2023/03/12 14:40:45;;;;;;;0.60;0.60;;;;;;;;;;4999206;28;20181;-83
2023/03/12 14:43:23;;;;;;;0.50;0.50;;;;;;;;;;4998693;28;20208;-83
2023/03/12 14:45:56;;;;;;;0.57;0.57;;;;;;;;;;4996561;28;20173;-83
2023/03/12 14:48:35;;;;;;;0.60;0.60;;;;;;;;;;4996746;28;20180;-83
2023/03/12 14:51:01;;;;;;;0.60;0.60;;;;;;;;;;4996558;28;20180;-84
2023/03/12 14:53:29;;;;;;;0.50;0.50;;;;;;;;;;4995819;28;20247;-85